Time;durP1;ratioP1;P1;durP2;ratioP2;P2;SDS_P1;SDS_P2;PMS_P1;PMS_P2;Temp;Humidity;BMP_temperature;BMP_pressure;BME280_temperature;BME280_humidity;BME280_pressure;Samples;Min_cycle;Max_cycle;Signal;HPM_P1;HPM_P2
2022/05/15 00:02:57;;;;;;;36.10;14.23;;;;;;;;;;10445294;28;20088;-67
2022/05/15 00:08:00;;;;;;;39.70;15.30;;;;;;;;;;10480571;28;20045;-67
2022/05/15 00:13:03;;;;;;;37.70;14.95;;;;;;;;;;10444397;28;20096;-67
2022/05/15 00:18:06;;;;;;;32.10;10.55;;;;;;;;;;10465371;28;20048;-66
2022/05/15 00:23:11;;;;;;;17.90;6.57;;;;;;;;;;10415384;28;20136;-66
2022/05/15 00:28:14;;;;;;;20.77;6.63;;;;;;;;;;10447130;28;20095;-67
2022/05/15 00:33:17;;;;;;;18.27;5.35;;;;;;;;;;10423441;28;20061;-67
2022/05/15 00:38:22;;;;;;;21.17;5.07;;;;;;;;;;10429078;28;20057;-68
2022/05/15 00:43:38;;;;;;;18.23;4.85;;;;;;;;;;10422329;28;20348;-67
2022/05/15 00:48:40;;;;;;;19.50;5.10;;;;;;;;;;10412581;28;20300;-67
2022/05/15 00:53:47;;;;;;;19.23;4.43;;;;;;;;;;10435318;28;20065;-67
2022/05/15 00:58:55;;;;;;;22.30;5.00;;;;;;;;;;10430612;28;20070;-67
2022/05/15 01:03:58;;;;;;;14.68;4.53;;;;;;;;;;10398042;28;20136;-68
2022/05/15 01:09:04;;;;;;;13.38;4.65;;;;;;;;;;10435940;28;20352;-67
2022/05/15 01:14:11;;;;;;;14.90;5.38;;;;;;;;;;10449266;28;20355;-67
2022/05/15 01:19:13;;;;;;;17.90;5.03;;;;;;;;;;10449758;28;20313;-67
2022/05/15 01:24:16;;;;;;;12.68;4.60;;;;;;;;;;10467052;28;20087;-67
2022/05/15 01:29:19;;;;;;;14.45;5.05;;;;;;;;;;10472622;28;20236;-66
2022/05/15 01:34:21;;;;;;;14.32;5.63;;;;;;;;;;10435356;28;20049;-66
2022/05/15 01:39:25;;;;;;;17.95;5.75;;;;;;;;;;10412718;28;20038;-67
2022/05/15 01:44:28;;;;;;;13.30;5.82;;;;;;;;;;10407545;28;20329;-67
2022/05/15 01:49:31;;;;;;;16.40;5.47;;;;;;;;;;10434129;28;20049;-66
2022/05/15 01:54:34;;;;;;;14.65;6.10;;;;;;;;;;10434417;28;20068;-67
2022/05/15 01:59:38;;;;;;;14.07;5.28;;;;;;;;;;10439132;28;20064;-66
2022/05/15 02:04:40;;;;;;;17.17;5.57;;;;;;;;;;10432714;28;20072;-67
2022/05/15 02:09:44;;;;;;;15.20;5.72;;;;;;;;;;10433378;28;20060;-66
2022/05/15 02:14:46;;;;;;;19.65;5.90;;;;;;;;;;10449518;28;20094;-66
2022/05/15 02:19:49;;;;;;;17.23;5.35;;;;;;;;;;10450737;28;20045;-66
2022/05/15 02:24:52;;;;;;;17.20;5.68;;;;;;;;;;10432311;28;20095;-66
2022/05/15 02:29:55;;;;;;;14.60;5.53;;;;;;;;;;10432171;28;20049;-66
2022/05/15 02:34:57;;;;;;;16.10;5.35;;;;;;;;;;10433838;28;20287;-68
2022/05/15 02:40:01;;;;;;;17.20;5.65;;;;;;;;;;10442354;28;20056;-67
2022/05/15 02:45:06;;;;;;;15.90;5.55;;;;;;;;;;10431261;28;20058;-67
2022/05/15 02:55:42;;;;;;;22.10;5.40;;;;;;;;;;10273473;28;20290;-68
2022/05/15 03:00:45;;;;;;;19.95;5.50;;;;;;;;;;10264871;28;20102;-66
2022/05/15 03:05:48;;;;;;;16.58;4.85;;;;;;;;;;10265338;28;20091;-67
2022/05/15 03:10:51;;;;;;;11.55;5.32;;;;;;;;;;10264812;29;20098;-67
2022/05/15 03:15:54;;;;;;;15.60;4.72;;;;;;;;;;10265822;29;20405;-66
2022/05/15 03:20:56;;;;;;;12.98;4.50;;;;;;;;;;10265174;29;20094;-67
2022/05/15 03:26:00;;;;;;;12.10;4.45;;;;;;;;;;10271529;28;20127;-67
2022/05/15 03:31:02;;;;;;;10.48;4.28;;;;;;;;;;10403956;28;20352;-68
2022/05/15 03:36:10;;;;;;;7.70;4.10;;;;;;;;;;10431716;28;20041;-68
2022/05/15 03:41:14;;;;;;;16.75;4.32;;;;;;;;;;10461648;28;20053;-68
2022/05/15 03:46:16;;;;;;;7.57;3.95;;;;;;;;;;10421053;28;20280;-67
2022/05/15 03:51:19;;;;;;;14.10;4.88;;;;;;;;;;10397487;28;20064;-68
2022/05/15 03:56:49;;;;;;;11.63;3.60;;;;;;;;;;10438485;28;20047;-68
2022/05/15 04:01:45;;;;;;;7.13;3.50;;;;;;;;;;10446722;28;20194;-68
2022/05/15 04:06:49;;;;;;;10.68;3.90;;;;;;;;;;10436685;28;20037;-68
2022/05/15 04:11:53;;;;;;;14.15;4.53;;;;;;;;;;10437877;28;20041;-67
2022/05/15 04:16:55;;;;;;;11.18;4.70;;;;;;;;;;10436777;28;20092;-68
2022/05/15 04:22:02;;;;;;;16.20;4.90;;;;;;;;;;10437083;28;20387;-68
2022/05/15 04:27:06;;;;;;;16.40;4.78;;;;;;;;;;10450227;28;20082;-67
2022/05/15 04:32:09;;;;;;;10.07;4.03;;;;;;;;;;10449795;28;20037;-68
2022/05/15 04:37:11;;;;;;;9.30;3.60;;;;;;;;;;10436445;28;20056;-68
2022/05/15 04:42:14;;;;;;;8.75;3.60;;;;;;;;;;10435887;28;20084;-68
2022/05/15 04:47:17;;;;;;;8.02;3.38;;;;;;;;;;10467019;28;20041;-68
2022/05/15 04:52:20;;;;;;;8.75;3.10;;;;;;;;;;10452402;28;20390;-69
2022/05/15 04:57:23;;;;;;;5.57;3.10;;;;;;;;;;10428906;28;20092;-69
2022/05/15 05:02:26;;;;;;;8.15;2.70;;;;;;;;;;10434050;28;20057;-67
2022/05/15 05:07:29;;;;;;;5.43;2.20;;;;;;;;;;10476481;28;20279;-68
2022/05/15 05:12:32;;;;;;;8.90;2.08;;;;;;;;;;10460169;28;20041;-69
2022/05/15 05:17:37;;;;;;;7.78;1.73;;;;;;;;;;10445225;28;20057;-68
2022/05/15 05:22:39;;;;;;;4.68;1.60;;;;;;;;;;10423101;28;20038;-67
2022/05/15 05:27:44;;;;;;;5.13;1.50;;;;;;;;;;10449261;28;20352;-68
2022/05/15 05:32:47;;;;;;;2.80;1.50;;;;;;;;;;10474943;28;20048;-66
2022/05/15 05:37:49;;;;;;;4.63;2.65;;;;;;;;;;10441351;28;20399;-68
2022/05/15 05:42:53;;;;;;;4.32;1.73;;;;;;;;;;10462989;28;20060;-67
2022/05/15 05:47:56;;;;;;;5.07;1.80;;;;;;;;;;10460252;28;20291;-67
2022/05/15 05:52:59;;;;;;;4.97;2.20;;;;;;;;;;10435003;28;20053;-68
2022/05/15 05:58:03;;;;;;;3.92;1.70;;;;;;;;;;10461711;28;20053;-68
2022/05/15 06:08:28;;;;;;;9.00;1.92;;;;;;;;;;10405298;28;20217;-68
2022/05/15 06:13:31;;;;;;;5.70;1.50;;;;;;;;;;10468907;28;20045;-67
2022/05/15 06:18:34;;;;;;;4.70;1.60;;;;;;;;;;10474524;28;20068;-67
2022/05/15 06:23:36;;;;;;;4.03;1.65;;;;;;;;;;10470392;28;20080;-68
2022/05/15 06:28:40;;;;;;;2.85;1.50;;;;;;;;;;10462013;28;20344;-68
2022/05/15 06:33:42;;;;;;;2.77;1.47;;;;;;;;;;10432746;28;20260;-68
2022/05/15 06:38:44;;;;;;;3.90;1.67;;;;;;;;;;10452653;28;20049;-68
2022/05/15 06:43:48;;;;;;;9.07;2.10;;;;;;;;;;10474989;28;20349;-66
2022/05/15 06:48:51;;;;;;;3.40;2.65;;;;;;;;;;10468623;28;20049;-68
2022/05/15 06:53:53;;;;;;;3.78;2.20;;;;;;;;;;10472131;28;20044;-68
2022/05/15 06:58:57;;;;;;;4.35;2.38;;;;;;;;;;10443025;28;20059;-68
2022/05/15 07:04:00;;;;;;;3.55;2.58;;;;;;;;;;10453111;28;20046;-68
2022/05/15 07:09:02;;;;;;;5.72;3.15;;;;;;;;;;10401677;28;20286;-73
2022/05/15 07:14:06;;;;;;;3.97;3.40;;;;;;;;;;10434584;28;20302;-73
2022/05/15 07:19:10;;;;;;;6.82;4.45;;;;;;;;;;10431485;28;20230;-75
2022/05/15 07:24:13;;;;;;;5.95;4.80;;;;;;;;;;10433749;28;20073;-69
2022/05/15 07:29:17;;;;;;;6.10;5.32;;;;;;;;;;10453534;28;20363;-70
2022/05/15 07:34:21;;;;;;;6.55;5.97;;;;;;;;;;10437705;28;20053;-74
2022/05/15 07:39:23;;;;;;;7.90;7.10;;;;;;;;;;10446902;28;20072;-72
2022/05/15 07:44:27;;;;;;;8.35;7.65;;;;;;;;;;10452434;28;20060;-71
2022/05/15 07:49:31;;;;;;;17.30;11.93;;;;;;;;;;10437348;28;20041;-73
2022/05/15 07:54:33;;;;;;;10.20;9.80;;;;;;;;;;10439847;28;20252;-70
2022/05/15 07:59:38;;;;;;;12.98;12.38;;;;;;;;;;10437706;28;20069;-70
2022/05/15 08:09:56;;;;;;;19.98;18.98;;;;;;;;;;10444616;28;20094;-71
2022/05/15 08:15:00;;;;;;;23.15;21.95;;;;;;;;;;10402206;28;20061;-73
2022/05/15 08:25:22;;;;;;;31.25;29.55;;;;;;;;;;10449484;28;20045;-73
2022/05/15 08:30:27;;;;;;;33.05;31.25;;;;;;;;;;10440802;28;20049;-73
2022/05/15 08:35:30;;;;;;;36.72;34.67;;;;;;;;;;10433519;28;20287;-74
2022/05/15 08:40:47;;;;;;;41.50;39.13;;;;;;;;;;10428610;28;20377;-75
2022/05/15 08:45:59;;;;;;;43.53;41.03;;;;;;;;;;10429589;28;20037;-70
2022/05/15 08:51:04;;;;;;;46.38;43.67;;;;;;;;;;10425382;28;20291;-74
2022/05/15 08:56:11;;;;;;;48.83;45.92;;;;;;;;;;10421487;28;20048;-73
2022/05/15 09:01:20;;;;;;;47.53;44.72;;;;;;;;;;10441215;28;20076;-71
2022/05/15 09:06:35;;;;;;;35.70;33.70;;;;;;;;;;10482174;28;20067;-71
2022/05/15 09:11:56;;;;;;;23.90;22.70;;;;;;;;;;10469951;28;20072;-71
2022/05/15 09:17:05;;;;;;;14.52;13.82;;;;;;;;;;10443246;28;20111;-72
2022/05/15 09:22:07;;;;;;;9.10;8.73;;;;;;;;;;10458137;28;20332;-70
2022/05/15 09:27:15;;;;;;;6.00;5.80;;;;;;;;;;10439334;28;20045;-70
2022/05/15 09:32:39;;;;;;;4.03;3.92;;;;;;;;;;10458579;28;20368;-72
2022/05/15 09:48:29;;;;;;;4.63;1.52;;;;;;;;;;10475162;28;20076;-71
2022/05/15 09:53:40;;;;;;;7.95;1.67;;;;;;;;;;10447945;28;20049;-71
2022/05/15 09:58:46;;;;;;;6.05;2.13;;;;;;;;;;10437583;28;20068;-71
2022/05/15 10:03:56;;;;;;;6.15;1.92;;;;;;;;;;10476511;28;20113;-71
2022/05/15 10:09:14;;;;;;;9.23;1.85;;;;;;;;;;10467098;28;20231;-70
2022/05/15 10:14:26;;;;;;;6.32;1.55;;;;;;;;;;10488660;28;20060;-71
2022/05/15 10:19:41;;;;;;;8.35;1.40;;;;;;;;;;10475709;28;20132;-71
2022/05/15 10:24:46;;;;;;;2.97;1.13;;;;;;;;;;10459576;28;20067;-72
2022/05/15 10:29:54;;;;;;;4.53;1.50;;;;;;;;;;10459826;28;20386;-68
2022/05/15 10:34:58;;;;;;;2.60;1.48;;;;;;;;;;10446086;28;20041;-69
2022/05/15 10:40:19;;;;;;;3.55;1.30;;;;;;;;;;10433133;28;20057;-68
2022/05/15 10:45:31;;;;;;;3.40;1.00;;;;;;;;;;10442370;28;20383;-69
2022/05/15 10:50:46;;;;;;;5.65;2.55;;;;;;;;;;10452222;28;20151;-67
2022/05/15 11:01:26;;;;;;;2.67;1.20;;;;;;;;;;10422256;28;20085;-68
2022/05/15 11:06:51;;;;;;;4.78;1.70;;;;;;;;;;10415736;28;20048;-67
2022/05/15 11:12:09;;;;;;;5.00;1.45;;;;;;;;;;10480589;28;20056;-68
2022/05/15 11:17:18;;;;;;;5.00;1.25;;;;;;;;;;10432438;28;20072;-68
2022/05/15 11:22:30;;;;;;;4.43;1.92;;;;;;;;;;10446019;28;20248;-67
2022/05/15 11:27:43;;;;;;;5.78;1.65;;;;;;;;;;10422710;28;20115;-74
2022/05/15 11:33:05;;;;;;;10.18;2.00;;;;;;;;;;10456393;28;20049;-70
2022/05/15 11:38:12;;;;;;;7.65;1.90;;;;;;;;;;10471151;28;20060;-71
2022/05/15 11:43:34;;;;;;;3.10;1.40;;;;;;;;;;10486871;28;20060;-71
2022/05/15 11:48:58;;;;;;;5.18;2.42;;;;;;;;;;10458141;28;20045;-72
2022/05/15 11:54:05;;;;;;;6.00;1.42;;;;;;;;;;10488292;28;20045;-73
2022/05/15 11:59:24;;;;;;;4.07;1.60;;;;;;;;;;10482401;28;20107;-70
2022/05/15 12:04:59;;;;;;;9.05;3.08;;;;;;;;;;10478539;28;20052;-71
2022/05/15 12:10:03;;;;;;;5.63;3.03;;;;;;;;;;10472400;28;20106;-72
2022/05/15 12:15:09;;;;;;;3.97;2.38;;;;;;;;;;10472721;28;20278;-72
2022/05/15 12:20:16;;;;;;;6.35;2.05;;;;;;;;;;10487104;28;20047;-72
2022/05/15 12:25:25;;;;;;;2.78;1.40;;;;;;;;;;10484404;28;20099;-70
2022/05/15 12:30:28;;;;;;;9.27;4.18;;;;;;;;;;10478441;28;20041;-71
2022/05/15 12:35:34;;;;;;;4.18;2.60;;;;;;;;;;10479540;28;20044;-71
2022/05/15 12:40:42;;;;;;;4.35;3.40;;;;;;;;;;10493127;28;20045;-71
2022/05/15 12:45:44;;;;;;;5.07;3.22;;;;;;;;;;10462960;28;20036;-73
2022/05/15 12:50:52;;;;;;;2.55;1.52;;;;;;;;;;10471457;28;20041;-73
2022/05/15 12:56:08;;;;;;;3.25;1.50;;;;;;;;;;10480496;28;20090;-72
2022/05/15 13:01:13;;;;;;;4.20;2.20;;;;;;;;;;10450638;28;20345;-74
2022/05/15 13:06:19;;;;;;;4.60;1.77;;;;;;;;;;10468914;28;20221;-73
2022/05/15 13:11:27;;;;;;;5.68;1.70;;;;;;;;;;10488840;28;20041;-73
2022/05/15 13:16:31;;;;;;;5.90;2.20;;;;;;;;;;10440865;28;20064;-74
2022/05/15 13:21:37;;;;;;;3.17;1.67;;;;;;;;;;10472164;28;20349;-74
2022/05/15 13:26:44;;;;;;;3.40;1.50;;;;;;;;;;10456048;28;20087;-73
2022/05/15 13:31:49;;;;;;;5.55;2.70;;;;;;;;;;10469100;28;20045;-71
2022/05/15 13:36:54;;;;;;;3.78;1.38;;;;;;;;;;10490783;28;20055;-72
2022/05/15 13:47:25;;;;;;;2.78;1.40;;;;;;;;;;10490917;28;20056;-74
2022/05/15 13:52:33;;;;;;;3.60;1.65;;;;;;;;;;10436756;28;20075;-71
2022/05/15 13:57:54;;;;;;;2.00;1.05;;;;;;;;;;10449659;28;20061;-71
2022/05/15 14:03:00;;;;;;;2.50;1.45;;;;;;;;;;10435683;28;20060;-73
2022/05/15 14:08:13;;;;;;;4.13;1.40;;;;;;;;;;10448827;28;20045;-74
2022/05/15 14:13:17;;;;;;;5.57;1.50;;;;;;;;;;10446532;28;20289;-71
2022/05/15 14:18:29;;;;;;;3.65;1.95;;;;;;;;;;10435129;28;20329;-70
2022/05/15 14:23:31;;;;;;;2.88;1.20;;;;;;;;;;10437844;28;20073;-70
2022/05/15 14:28:37;;;;;;;3.65;1.50;;;;;;;;;;10464758;28;20048;-72
2022/05/15 14:33:42;;;;;;;4.68;1.77;;;;;;;;;;10445158;28;20229;-71
2022/05/15 14:38:44;;;;;;;6.15;1.63;;;;;;;;;;10432616;28;20041;-72
2022/05/15 14:43:48;;;;;;;8.07;1.60;;;;;;;;;;10434104;28;20045;-71
2022/05/15 14:48:51;;;;;;;;;;;;;;;;;;10457679;28;20235;-70
2022/05/15 14:53:55;;;;;;;3.03;1.42;;;;;;;;;;10474175;28;19917;-71
2022/05/15 14:59:01;;;;;;;5.03;1.73;;;;;;;;;;10471427;28;20134;-70
2022/05/15 15:04:04;;;;;;;6.95;2.10;;;;;;;;;;10455207;28;20049;-69
2022/05/15 15:09:06;;;;;;;2.50;1.58;;;;;;;;;;10472604;28;20037;-71
2022/05/15 15:14:10;;;;;;;10.50;3.15;;;;;;;;;;10446159;28;20325;-71
2022/05/15 15:19:15;;;;;;;4.85;1.48;;;;;;;;;;10411212;28;20095;-71
2022/05/15 15:24:19;;;;;;;7.90;1.80;;;;;;;;;;10470785;28;20060;-69
2022/05/15 15:29:23;;;;;;;5.57;1.30;;;;;;;;;;10472553;28;20059;-73
2022/05/15 15:34:25;;;;;;;2.30;1.23;;;;;;;;;;10472042;28;20044;-71
2022/05/15 15:39:27;;;;;;;2.88;1.23;;;;;;;;;;10470915;28;20072;-71
2022/05/15 15:44:31;;;;;;;1.83;1.38;;;;;;;;;;10429463;28;20041;-70
2022/05/15 15:49:34;;;;;;;2.45;1.25;;;;;;;;;;10452573;28;20049;-70
2022/05/15 15:54:36;;;;;;;5.95;1.60;;;;;;;;;;10479871;28;20060;-69
2022/05/15 15:59:41;;;;;;;4.38;1.60;;;;;;;;;;10458698;28;20049;-70
2022/05/15 16:04:44;;;;;;;4.30;1.90;;;;;;;;;;10419839;28;20217;-72
2022/05/15 16:09:46;;;;;;;4.93;1.60;;;;;;;;;;10480684;28;20048;-69
2022/05/15 16:14:50;;;;;;;3.17;1.92;;;;;;;;;;10478190;28;20107;-70
2022/05/15 16:19:52;;;;;;;3.35;2.22;;;;;;;;;;10453029;28;20049;-70
2022/05/15 16:24:59;;;;;;;2.75;1.50;;;;;;;;;;10438845;28;20045;-70
2022/05/15 16:30:06;;;;;;;4.65;2.00;;;;;;;;;;10452028;28;20049;-70
2022/05/15 16:35:09;;;;;;;6.60;2.15;;;;;;;;;;10451550;28;20108;-70
2022/05/15 16:40:12;;;;;;;11.43;2.63;;;;;;;;;;10438575;28;20287;-71
2022/05/15 16:45:19;;;;;;;2.85;1.70;;;;;;;;;;10437794;28;20080;-72
2022/05/15 16:50:22;;;;;;;4.20;2.10;;;;;;;;;;10475080;28;20359;-68
2022/05/15 16:55:26;;;;;;;6.90;2.33;;;;;;;;;;10438551;28;20092;-71
2022/05/15 17:00:31;;;;;;;4.88;2.00;;;;;;;;;;10443736;28;20390;-71
2022/05/15 17:05:33;;;;;;;5.97;1.80;;;;;;;;;;10475297;28;20057;-70
2022/05/15 17:10:36;;;;;;;2.60;1.55;;;;;;;;;;10473583;28;20047;-68
2022/05/15 17:15:40;;;;;;;6.00;1.90;;;;;;;;;;10456191;28;20083;-68
2022/05/15 17:20:43;;;;;;;6.35;1.77;;;;;;;;;;10433837;28;20111;-68
2022/05/15 17:25:45;;;;;;;2.85;1.63;;;;;;;;;;10449137;28;20053;-68
2022/05/15 17:36:09;;;;;;;9.38;2.40;;;;;;;;;;10437518;28;20337;-67
2022/05/15 17:41:11;;;;;;;4.53;2.00;;;;;;;;;;10398629;28;20050;-67
2022/05/15 17:46:15;;;;;;;4.47;1.80;;;;;;;;;;10425798;28;20364;-67
2022/05/15 17:51:17;;;;;;;3.00;2.27;;;;;;;;;;10434660;28;20080;-68
2022/05/15 17:56:19;;;;;;;8.95;2.50;;;;;;;;;;10419172;28;20050;-66
2022/05/15 18:01:23;;;;;;;7.32;2.80;;;;;;;;;;10461102;28;20093;-68
2022/05/15 18:06:28;;;;;;;5.18;2.42;;;;;;;;;;10454233;28;20054;-68
2022/05/15 18:11:38;;;;;;;5.72;1.98;;;;;;;;;;10447070;28;20091;-68
2022/05/15 18:16:42;;;;;;;10.05;2.60;;;;;;;;;;10477716;28;20371;-67
2022/05/15 18:21:44;;;;;;;6.13;2.20;;;;;;;;;;10470732;28;20071;-67
2022/05/15 18:26:46;;;;;;;4.55;2.28;;;;;;;;;;10469202;28;20064;-67
2022/05/15 18:31:50;;;;;;;7.35;2.38;;;;;;;;;;10432418;28;20045;-67
2022/05/15 18:36:54;;;;;;;9.13;3.40;;;;;;;;;;10404177;28;20046;-68
2022/05/15 18:42:03;;;;;;;22.98;9.02;;;;;;;;;;10424541;28;20041;-66
2022/05/15 18:47:08;;;;;;;15.35;6.15;;;;;;;;;;10406573;28;20072;-67
2022/05/15 18:57:32;;;;;;;11.32;4.82;;;;;;;;;;10454997;28;20060;-67
2022/05/15 19:02:36;;;;;;;10.57;3.15;;;;;;;;;;10441840;28;20280;-67
2022/05/15 19:07:39;;;;;;;8.37;2.60;;;;;;;;;;10415407;28;20244;-66
2022/05/15 19:12:42;;;;;;;15.23;5.55;;;;;;;;;;10464517;28;20247;-66
2022/05/15 19:17:45;;;;;;;5.38;3.28;;;;;;;;;;10473809;28;20308;-67
2022/05/15 19:22:48;;;;;;;4.82;2.17;;;;;;;;;;10452246;28;20049;-68
2022/05/15 19:27:50;;;;;;;10.25;3.22;;;;;;;;;;10448084;28;20049;-68
2022/05/15 19:32:54;;;;;;;7.07;3.25;;;;;;;;;;10458835;28;20087;-67
2022/05/15 19:37:57;;;;;;;10.07;3.78;;;;;;;;;;10446047;28;20077;-71
2022/05/15 19:42:59;;;;;;;5.32;2.50;;;;;;;;;;10477533;28;20233;-68
2022/05/15 19:48:04;;;;;;;7.45;3.38;;;;;;;;;;10452639;28;20072;-71
2022/05/15 19:53:07;;;;;;;10.67;2.90;;;;;;;;;;10445119;28;20049;-67
2022/05/15 19:58:09;;;;;;;9.32;2.95;;;;;;;;;;10468799;28;20415;-68
2022/05/15 20:03:14;;;;;;;8.80;3.53;;;;;;;;;;10454833;28;20057;-67
2022/05/15 20:13:38;;;;;;;9.32;3.67;;;;;;;;;;10456597;28;20218;-67
2022/05/15 20:18:43;;;;;;;10.10;3.58;;;;;;;;;;10438653;28;20041;-66
2022/05/15 20:23:46;;;;;;;10.50;3.35;;;;;;;;;;10445251;28;20049;-67
2022/05/15 20:28:49;;;;;;;6.68;3.40;;;;;;;;;;10438253;28;20049;-66
2022/05/15 20:33:55;;;;;;;7.82;3.47;;;;;;;;;;10450116;28;20049;-66
2022/05/15 20:38:57;;;;;;;7.30;3.58;;;;;;;;;;10450521;28;20076;-66
2022/05/15 20:44:00;;;;;;;10.02;3.30;;;;;;;;;;10453555;28;20069;-67
2022/05/15 20:49:04;;;;;;;7.60;3.17;;;;;;;;;;10437540;28;20348;-67
2022/05/15 20:54:06;;;;;;;7.30;3.05;;;;;;;;;;10461726;28;20045;-67
2022/05/15 20:59:10;;;;;;;12.65;6.22;;;;;;;;;;10474120;28;20111;-67
2022/05/15 21:04:14;;;;;;;8.63;4.97;;;;;;;;;;10399190;28;20041;-67
2022/05/15 21:09:16;;;;;;;12.77;3.47;;;;;;;;;;10456393;28;20072;-66
2022/05/15 21:14:19;;;;;;;6.97;3.33;;;;;;;;;;10437208;28;20061;-68
2022/05/15 21:19:23;;;;;;;7.10;3.20;;;;;;;;;;10437443;28;20049;-67
2022/05/15 21:24:25;;;;;;;11.27;3.40;;;;;;;;;;10465453;28;20091;-68
2022/05/15 21:29:27;;;;;;;9.52;3.55;;;;;;;;;;10450867;28;20041;-66
2022/05/15 21:34:33;;;;;;;6.43;3.40;;;;;;;;;;10433754;28;20061;-66
2022/05/15 21:44:55;;;;;;;8.55;3.25;;;;;;;;;;10489997;28;20294;-66
2022/05/15 21:49:59;;;;;;;7.78;3.10;;;;;;;;;;10448604;28;20272;-68
2022/05/15 21:55:02;;;;;;;11.00;3.38;;;;;;;;;;10435591;28;20049;-67
2022/05/15 22:00:44;;;;;;;9.00;3.30;;;;;;;;;;10434376;28;20061;-67
2022/05/15 22:05:59;;;;;;;9.40;3.33;;;;;;;;;;10459886;28;20296;-67
2022/05/15 22:11:03;;;;;;;6.70;4.05;;;;;;;;;;10451042;28;20081;-66
2022/05/15 22:16:06;;;;;;;9.73;3.50;;;;;;;;;;10393890;28;20061;-68
2022/05/15 22:21:10;;;;;;;11.50;4.28;;;;;;;;;;10429053;28;20053;-67
2022/05/15 22:26:12;;;;;;;8.63;3.70;;;;;;;;;;10465640;28;20098;-66
2022/05/15 22:31:14;;;;;;;9.50;4.00;;;;;;;;;;10439322;28;20051;-66
2022/05/15 22:36:18;;;;;;;9.95;3.50;;;;;;;;;;10417831;28;20233;-67
2022/05/15 22:41:23;;;;;;;9.82;4.43;;;;;;;;;;10392458;28;20072;-67
2022/05/15 22:46:26;;;;;;;9.00;3.55;;;;;;;;;;10402003;28;20390;-66
2022/05/15 22:51:31;;;;;;;15.68;4.05;;;;;;;;;;10453521;28;20065;-65
2022/05/15 22:56:33;;;;;;;8.57;4.17;;;;;;;;;;10420993;28;20060;-66
2022/05/15 23:01:36;;;;;;;10.23;4.40;;;;;;;;;;10429819;28;20083;-66
2022/05/15 23:11:59;;;;;;;9.48;4.50;;;;;;;;;;10404142;28;20347;-66
2022/05/15 23:17:01;;;;;;;10.50;4.97;;;;;;;;;;10416158;28;20045;-65
2022/05/15 23:22:05;;;;;;;8.73;4.55;;;;;;;;;;10473882;28;20052;-67
2022/05/15 23:27:09;;;;;;;7.18;4.53;;;;;;;;;;10443559;28;20068;-66
2022/05/15 23:32:13;;;;;;;11.88;4.50;;;;;;;;;;10437550;28;20036;-66
2022/05/15 23:37:19;;;;;;;12.13;5.03;;;;;;;;;;10460424;28;20057;-66
2022/05/15 23:42:22;;;;;;;9.23;4.35;;;;;;;;;;10431449;28;20116;-66
2022/05/15 23:47:25;;;;;;;7.75;5.38;;;;;;;;;;10410295;28;20046;-66
2022/05/15 23:52:28;;;;;;;13.57;5.18;;;;;;;;;;10391191;28;20053;-65
2022/05/15 23:57:31;;;;;;;6.88;4.68;;;;;;;;;;10422781;28;20054;-66
